sensor_id;sensor_type;location;lat;lon;timestamp;P1;durP1;ratioP1;P2;durP2;ratioP2
7557;SDS011;3820;51.098;13.716;2022-12-17T00:02:31;13.17;;;6.67;;
7557;SDS011;3820;51.098;13.716;2022-12-17T00:05:16;14.30;;;8.57;;
7557;SDS011;3820;51.098;13.716;2022-12-17T00:08:01;15.67;;;8.63;;
7557;SDS011;3820;51.098;13.716;2022-12-17T00:10:47;10.33;;;6.43;;
7557;SDS011;3820;51.098;13.716;2022-12-17T00:13:34;12.73;;;6.30;;
7557;SDS011;3820;51.098;13.716;2022-12-17T00:16:20;14.23;;;8.17;;
7557;SDS011;3820;51.098;13.716;2022-12-17T00:19:05;14.37;;;7.73;;
7557;SDS011;3820;51.098;13.716;2022-12-17T00:21:51;11.93;;;6.37;;
7557;SDS011;3820;51.098;13.716;2022-12-17T00:24:37;16.63;;;6.53;;
7557;SDS011;3820;51.098;13.716;2022-12-17T00:27:23;16.77;;;6.17;;
7557;SDS011;3820;51.098;13.716;2022-12-17T00:30:22;9.60;;;5.83;;
7557;SDS011;3820;51.098;13.716;2022-12-17T00:33:07;20.37;;;7.73;;
7557;SDS011;3820;51.098;13.716;2022-12-17T00:35:53;17.97;;;6.77;;
7557;SDS011;3820;51.098;13.716;2022-12-17T00:38:38;12.93;;;5.10;;
7557;SDS011;3820;51.098;13.716;2022-12-17T00:41:24;10.10;;;5.87;;
7557;SDS011;3820;51.098;13.716;2022-12-17T00:44:10;13.60;;;5.63;;
7557;SDS011;3820;51.098;13.716;2022-12-17T00:46:55;13.17;;;7.87;;
7557;SDS011;3820;51.098;13.716;2022-12-17T00:49:42;16.70;;;8.90;;
7557;SDS011;3820;51.098;13.716;2022-12-17T00:52:28;15.77;;;7.67;;
7557;SDS011;3820;51.098;13.716;2022-12-17T00:55:13;13.97;;;7.57;;
7557;SDS011;3820;51.098;13.716;2022-12-17T00:57:58;11.53;;;7.67;;
7557;SDS011;3820;51.098;13.716;2022-12-17T01:00:43;21.37;;;7.33;;
7557;SDS011;3820;51.098;13.716;2022-12-17T01:03:29;13.60;;;6.93;;
7557;SDS011;3820;51.098;13.716;2022-12-17T01:06:14;17.10;;;9.37;;
7557;SDS011;3820;51.098;13.716;2022-12-17T01:09:00;15.97;;;6.00;;
7557;SDS011;3820;51.098;13.716;2022-12-17T01:11:45;13.97;;;8.67;;
7557;SDS011;3820;51.098;13.716;2022-12-17T01:14:38;11.63;;;7.00;;
7557;SDS011;3820;51.098;13.716;2022-12-17T01:17:43;12.13;;;6.27;;
7557;SDS011;3820;51.098;13.716;2022-12-17T01:20:28;11.30;;;6.63;;
7557;SDS011;3820;51.098;13.716;2022-12-17T01:23:13;15.27;;;7.70;;
7557;SDS011;3820;51.098;13.716;2022-12-17T01:25:59;11.93;;;6.23;;
7557;SDS011;3820;51.098;13.716;2022-12-17T01:28:44;15.07;;;8.27;;
7557;SDS011;3820;51.098;13.716;2022-12-17T01:31:30;10.60;;;7.13;;
7557;SDS011;3820;51.098;13.716;2022-12-17T01:34:15;20.50;;;8.70;;
7557;SDS011;3820;51.098;13.716;2022-12-17T01:37:00;18.50;;;8.93;;
7557;SDS011;3820;51.098;13.716;2022-12-17T01:39:45;11.90;;;7.33;;
7557;SDS011;3820;51.098;13.716;2022-12-17T01:42:42;9.40;;;6.57;;
7557;SDS011;3820;51.098;13.716;2022-12-17T01:45:43;11.67;;;6.43;;
7557;SDS011;3820;51.098;13.716;2022-12-17T01:48:33;8.93;;;6.83;;
7557;SDS011;3820;51.098;13.716;2022-12-17T01:51:21;12.00;;;8.30;;
7557;SDS011;3820;51.098;13.716;2022-12-17T01:54:08;12.83;;;6.53;;
7557;SDS011;3820;51.098;13.716;2022-12-17T01:56:54;12.47;;;7.77;;
7557;SDS011;3820;51.098;13.716;2022-12-17T02:00:00;17.33;;;7.20;;
7557;SDS011;3820;51.098;13.716;2022-12-17T02:02:48;9.63;;;5.70;;
7557;SDS011;3820;51.098;13.716;2022-12-17T02:05:59;12.57;;;7.47;;
7557;SDS011;3820;51.098;13.716;2022-12-17T02:09:08;14.07;;;6.43;;
7557;SDS011;3820;51.098;13.716;2022-12-17T02:15:24;10.83;;;7.13;;
7557;SDS011;3820;51.098;13.716;2022-12-17T02:18:15;10.07;;;6.23;;
7557;SDS011;3820;51.098;13.716;2022-12-17T02:21:05;14.13;;;6.40;;
7557;SDS011;3820;51.098;13.716;2022-12-17T02:24:08;13.10;;;6.63;;
7557;SDS011;3820;51.098;13.716;2022-12-17T02:27:00;10.30;;;7.47;;
7557;SDS011;3820;51.098;13.716;2022-12-17T02:29:48;18.00;;;6.83;;
7557;SDS011;3820;51.098;13.716;2022-12-17T02:32:49;18.57;;;8.83;;
7557;SDS011;3820;51.098;13.716;2022-12-17T02:35:56;15.30;;;8.13;;
7557;SDS011;3820;51.098;13.716;2022-12-17T02:38:44;11.70;;;7.17;;
7557;SDS011;3820;51.098;13.716;2022-12-17T02:41:40;15.07;;;6.80;;
7557;SDS011;3820;51.098;13.716;2022-12-17T02:44:35;13.70;;;6.93;;
7557;SDS011;3820;51.098;13.716;2022-12-17T02:47:21;16.57;;;8.13;;
7557;SDS011;3820;51.098;13.716;2022-12-17T02:50:07;9.93;;;6.10;;
7557;SDS011;3820;51.098;13.716;2022-12-17T02:52:57;12.67;;;6.23;;
7557;SDS011;3820;51.098;13.716;2022-12-17T02:55:44;22.80;;;8.90;;
7557;SDS011;3820;51.098;13.716;2022-12-17T02:58:29;16.20;;;5.67;;
7557;SDS011;3820;51.098;13.716;2022-12-17T03:01:15;17.40;;;7.07;;
7557;SDS011;3820;51.098;13.716;2022-12-17T03:04:09;11.17;;;6.80;;
7557;SDS011;3820;51.098;13.716;2022-12-17T03:06:55;19.17;;;7.67;;
7557;SDS011;3820;51.098;13.716;2022-12-17T03:09:40;15.90;;;7.57;;
7557;SDS011;3820;51.098;13.716;2022-12-17T03:12:26;16.30;;;8.33;;
7557;SDS011;3820;51.098;13.716;2022-12-17T03:15:12;10.27;;;7.20;;
7557;SDS011;3820;51.098;13.716;2022-12-17T03:17:58;6.90;;;5.30;;
7557;SDS011;3820;51.098;13.716;2022-12-17T03:20:43;18.80;;;7.93;;
7557;SDS011;3820;51.098;13.716;2022-12-17T03:23:28;16.40;;;8.10;;
7557;SDS011;3820;51.098;13.716;2022-12-17T03:26:14;12.10;;;5.60;;
7557;SDS011;3820;51.098;13.716;2022-12-17T03:28:59;14.80;;;7.13;;
7557;SDS011;3820;51.098;13.716;2022-12-17T03:31:48;9.83;;;6.50;;
7557;SDS011;3820;51.098;13.716;2022-12-17T03:34:34;23.73;;;11.20;;
7557;SDS011;3820;51.098;13.716;2022-12-17T03:37:19;10.80;;;7.37;;
7557;SDS011;3820;51.098;13.716;2022-12-17T03:40:05;11.83;;;6.50;;
7557;SDS011;3820;51.098;13.716;2022-12-17T03:42:51;10.57;;;6.93;;
7557;SDS011;3820;51.098;13.716;2022-12-17T03:45:36;15.73;;;6.67;;
7557;SDS011;3820;51.098;13.716;2022-12-17T03:48:22;17.20;;;7.03;;
7557;SDS011;3820;51.098;13.716;2022-12-17T03:51:07;12.50;;;6.87;;
7557;SDS011;3820;51.098;13.716;2022-12-17T03:53:53;12.00;;;7.27;;
7557;SDS011;3820;51.098;13.716;2022-12-17T03:56:38;15.77;;;8.30;;
7557;SDS011;3820;51.098;13.716;2022-12-17T03:59:23;10.13;;;5.63;;
7557;SDS011;3820;51.098;13.716;2022-12-17T04:02:09;17.77;;;8.80;;
7557;SDS011;3820;51.098;13.716;2022-12-17T04:04:54;13.13;;;6.63;;
7557;SDS011;3820;51.098;13.716;2022-12-17T04:07:45;13.47;;;8.70;;
7557;SDS011;3820;51.098;13.716;2022-12-17T04:10:30;12.63;;;7.03;;
7557;SDS011;3820;51.098;13.716;2022-12-17T04:13:16;17.00;;;8.33;;
7557;SDS011;3820;51.098;13.716;2022-12-17T04:16:06;14.30;;;8.20;;
7557;SDS011;3820;51.098;13.716;2022-12-17T04:18:51;11.83;;;7.13;;
7557;SDS011;3820;51.098;13.716;2022-12-17T04:24:28;13.83;;;8.07;;
7557;SDS011;3820;51.098;13.716;2022-12-17T04:27:13;12.00;;;6.50;;
7557;SDS011;3820;51.098;13.716;2022-12-17T04:29:58;10.20;;;5.17;;
7557;SDS011;3820;51.098;13.716;2022-12-17T04:32:44;26.10;;;7.03;;
7557;SDS011;3820;51.098;13.716;2022-12-17T04:35:29;9.70;;;5.70;;
7557;SDS011;3820;51.098;13.716;2022-12-17T04:38:14;15.50;;;10.27;;
7557;SDS011;3820;51.098;13.716;2022-12-17T04:40:59;21.83;;;8.77;;
7557;SDS011;3820;51.098;13.716;2022-12-17T04:43:45;16.10;;;6.80;;
7557;SDS011;3820;51.098;13.716;2022-12-17T04:46:30;11.13;;;6.80;;
7557;SDS011;3820;51.098;13.716;2022-12-17T04:49:15;14.13;;;7.23;;
7557;SDS011;3820;51.098;13.716;2022-12-17T04:52:01;21.47;;;8.13;;
7557;SDS011;3820;51.098;13.716;2022-12-17T04:54:46;9.13;;;6.57;;
7557;SDS011;3820;51.098;13.716;2022-12-17T04:57:31;13.83;;;7.87;;
7557;SDS011;3820;51.098;13.716;2022-12-17T05:00:17;16.13;;;7.30;;
7557;SDS011;3820;51.098;13.716;2022-12-17T05:03:03;23.23;;;8.40;;
7557;SDS011;3820;51.098;13.716;2022-12-17T05:05:51;13.80;;;7.13;;
7557;SDS011;3820;51.098;13.716;2022-12-17T05:08:37;17.43;;;7.23;;
7557;SDS011;3820;51.098;13.716;2022-12-17T05:11:22;17.70;;;7.03;;
7557;SDS011;3820;51.098;13.716;2022-12-17T05:14:08;23.60;;;10.03;;
7557;SDS011;3820;51.098;13.716;2022-12-17T05:16:53;12.67;;;5.87;;
7557;SDS011;3820;51.098;13.716;2022-12-17T05:19:38;13.93;;;8.70;;
7557;SDS011;3820;51.098;13.716;2022-12-17T05:22:24;28.43;;;8.53;;
7557;SDS011;3820;51.098;13.716;2022-12-17T05:25:09;14.50;;;7.23;;
7557;SDS011;3820;51.098;13.716;2022-12-17T05:27:58;17.10;;;7.27;;
7557;SDS011;3820;51.098;13.716;2022-12-17T05:30:49;8.63;;;6.23;;
7557;SDS011;3820;51.098;13.716;2022-12-17T05:33:35;13.27;;;7.27;;
7557;SDS011;3820;51.098;13.716;2022-12-17T05:36:23;10.43;;;7.27;;
7557;SDS011;3820;51.098;13.716;2022-12-17T05:39:08;10.87;;;8.17;;
7557;SDS011;3820;51.098;13.716;2022-12-17T05:41:53;10.70;;;6.07;;
7557;SDS011;3820;51.098;13.716;2022-12-17T05:44:38;8.27;;;6.47;;
7557;SDS011;3820;51.098;13.716;2022-12-17T05:47:26;9.90;;;5.93;;
7557;SDS011;3820;51.098;13.716;2022-12-17T05:50:12;18.97;;;7.03;;
7557;SDS011;3820;51.098;13.716;2022-12-17T05:53:01;16.23;;;5.97;;
7557;SDS011;3820;51.098;13.716;2022-12-17T05:55:47;17.33;;;7.13;;
7557;SDS011;3820;51.098;13.716;2022-12-17T05:58:34;21.90;;;7.40;;
7557;SDS011;3820;51.098;13.716;2022-12-17T06:01:19;21.13;;;8.87;;
7557;SDS011;3820;51.098;13.716;2022-12-17T06:04:04;24.77;;;8.70;;
7557;SDS011;3820;51.098;13.716;2022-12-17T06:06:50;16.37;;;8.13;;
7557;SDS011;3820;51.098;13.716;2022-12-17T06:09:35;18.87;;;7.57;;
7557;SDS011;3820;51.098;13.716;2022-12-17T06:12:20;10.77;;;7.67;;
7557;SDS011;3820;51.098;13.716;2022-12-17T06:15:08;23.73;;;8.40;;
7557;SDS011;3820;51.098;13.716;2022-12-17T06:17:54;18.00;;;8.00;;
7557;SDS011;3820;51.098;13.716;2022-12-17T06:20:42;17.27;;;7.53;;
7557;SDS011;3820;51.098;13.716;2022-12-17T06:23:27;13.23;;;7.53;;
7557;SDS011;3820;51.098;13.716;2022-12-17T06:26:13;26.27;;;9.73;;
7557;SDS011;3820;51.098;13.716;2022-12-17T06:28:58;17.60;;;8.20;;
7557;SDS011;3820;51.098;13.716;2022-12-17T06:31:43;14.10;;;7.97;;
7557;SDS011;3820;51.098;13.716;2022-12-17T06:34:33;12.37;;;7.63;;
7557;SDS011;3820;51.098;13.716;2022-12-17T06:37:18;15.23;;;7.50;;
7557;SDS011;3820;51.098;13.716;2022-12-17T06:40:03;13.80;;;6.73;;
7557;SDS011;3820;51.098;13.716;2022-12-17T06:43:02;12.07;;;6.60;;
7557;SDS011;3820;51.098;13.716;2022-12-17T06:45:50;18.27;;;9.30;;
7557;SDS011;3820;51.098;13.716;2022-12-17T06:48:35;18.60;;;7.03;;
7557;SDS011;3820;51.098;13.716;2022-12-17T06:51:21;21.90;;;7.83;;
7557;SDS011;3820;51.098;13.716;2022-12-17T06:54:07;15.50;;;7.43;;
7557;SDS011;3820;51.098;13.716;2022-12-17T06:56:53;17.63;;;7.77;;
7557;SDS011;3820;51.098;13.716;2022-12-17T06:59:39;15.37;;;7.83;;
7557;SDS011;3820;51.098;13.716;2022-12-17T07:02:27;17.30;;;7.40;;
7557;SDS011;3820;51.098;13.716;2022-12-17T07:05:12;14.20;;;7.17;;
7557;SDS011;3820;51.098;13.716;2022-12-17T07:07:58;17.03;;;6.90;;
7557;SDS011;3820;51.098;13.716;2022-12-17T07:10:44;20.53;;;8.87;;
7557;SDS011;3820;51.098;13.716;2022-12-17T07:13:29;20.43;;;8.70;;
7557;SDS011;3820;51.098;13.716;2022-12-17T07:16:14;22.83;;;9.50;;
7557;SDS011;3820;51.098;13.716;2022-12-17T07:21:52;18.23;;;7.60;;
7557;SDS011;3820;51.098;13.716;2022-12-17T07:24:38;16.30;;;8.43;;
7557;SDS011;3820;51.098;13.716;2022-12-17T07:27:23;20.97;;;8.53;;
7557;SDS011;3820;51.098;13.716;2022-12-17T07:30:11;12.43;;;7.23;;
7557;SDS011;3820;51.098;13.716;2022-12-17T07:33:00;24.67;;;8.67;;
7557;SDS011;3820;51.098;13.716;2022-12-17T07:35:54;23.50;;;7.20;;
7557;SDS011;3820;51.098;13.716;2022-12-17T07:38:40;21.37;;;9.00;;
7557;SDS011;3820;51.098;13.716;2022-12-17T07:41:32;11.03;;;6.50;;
7557;SDS011;3820;51.098;13.716;2022-12-17T07:44:18;16.13;;;7.00;;
7557;SDS011;3820;51.098;13.716;2022-12-17T07:49:53;15.10;;;8.70;;
7557;SDS011;3820;51.098;13.716;2022-12-17T07:52:43;16.33;;;7.33;;
7557;SDS011;3820;51.098;13.716;2022-12-17T07:55:28;16.93;;;8.97;;
7557;SDS011;3820;51.098;13.716;2022-12-17T07:58:14;24.43;;;10.10;;
7557;SDS011;3820;51.098;13.716;2022-12-17T08:00:59;24.23;;;9.60;;
7557;SDS011;3820;51.098;13.716;2022-12-17T08:03:45;21.07;;;8.83;;
7557;SDS011;3820;51.098;13.716;2022-12-17T08:06:30;23.13;;;8.40;;
7557;SDS011;3820;51.098;13.716;2022-12-17T08:09:24;21.10;;;8.97;;
7557;SDS011;3820;51.098;13.716;2022-12-17T08:12:09;16.63;;;9.97;;
7557;SDS011;3820;51.098;13.716;2022-12-17T08:14:55;28.93;;;11.17;;
7557;SDS011;3820;51.098;13.716;2022-12-17T08:17:40;35.10;;;10.60;;
7557;SDS011;3820;51.098;13.716;2022-12-17T08:20:28;17.37;;;9.83;;
7557;SDS011;3820;51.098;13.716;2022-12-17T08:23:13;29.50;;;9.43;;
7557;SDS011;3820;51.098;13.716;2022-12-17T08:26:06;32.70;;;9.53;;
7557;SDS011;3820;51.098;13.716;2022-12-17T08:28:51;20.20;;;9.87;;
7557;SDS011;3820;51.098;13.716;2022-12-17T08:31:37;15.63;;;7.43;;
7557;SDS011;3820;51.098;13.716;2022-12-17T08:34:22;27.87;;;10.80;;
7557;SDS011;3820;51.098;13.716;2022-12-17T08:37:07;24.20;;;11.10;;
7557;SDS011;3820;51.098;13.716;2022-12-17T08:39:52;24.77;;;11.77;;
7557;SDS011;3820;51.098;13.716;2022-12-17T08:42:38;26.70;;;10.20;;
7557;SDS011;3820;51.098;13.716;2022-12-17T08:48:29;21.40;;;10.73;;
7557;SDS011;3820;51.098;13.716;2022-12-17T08:51:14;25.80;;;11.23;;
7557;SDS011;3820;51.098;13.716;2022-12-17T08:53:59;18.27;;;7.37;;
7557;SDS011;3820;51.098;13.716;2022-12-17T08:56:45;38.27;;;9.03;;
7557;SDS011;3820;51.098;13.716;2022-12-17T08:59:35;30.63;;;9.67;;
7557;SDS011;3820;51.098;13.716;2022-12-17T09:02:21;22.63;;;9.40;;
7557;SDS011;3820;51.098;13.716;2022-12-17T09:05:06;23.13;;;9.57;;
7557;SDS011;3820;51.098;13.716;2022-12-17T09:07:59;22.80;;;9.53;;
7557;SDS011;3820;51.098;13.716;2022-12-17T09:10:49;25.83;;;10.37;;
7557;SDS011;3820;51.098;13.716;2022-12-17T09:13:35;28.90;;;11.17;;
7557;SDS011;3820;51.098;13.716;2022-12-17T09:16:20;27.83;;;12.23;;
7557;SDS011;3820;51.098;13.716;2022-12-17T09:19:08;20.63;;;10.60;;
7557;SDS011;3820;51.098;13.716;2022-12-17T09:21:54;21.83;;;9.73;;
7557;SDS011;3820;51.098;13.716;2022-12-17T09:24:39;16.53;;;7.67;;
7557;SDS011;3820;51.098;13.716;2022-12-17T09:27:30;25.50;;;11.40;;
7557;SDS011;3820;51.098;13.716;2022-12-17T09:30:17;33.47;;;12.73;;
7557;SDS011;3820;51.098;13.716;2022-12-17T09:33:20;22.57;;;10.50;;
7557;SDS011;3820;51.098;13.716;2022-12-17T09:36:05;36.60;;;12.87;;
7557;SDS011;3820;51.098;13.716;2022-12-17T09:38:51;28.07;;;10.83;;
7557;SDS011;3820;51.098;13.716;2022-12-17T09:45:21;29.77;;;10.50;;
7557;SDS011;3820;51.098;13.716;2022-12-17T09:51:40;23.23;;;10.83;;
7557;SDS011;3820;51.098;13.716;2022-12-17T09:54:20;26.77;;;9.13;;
7557;SDS011;3820;51.098;13.716;2022-12-17T09:57:12;17.83;;;8.03;;
7557;SDS011;3820;51.098;13.716;2022-12-17T10:02:59;31.53;;;9.40;;
7557;SDS011;3820;51.098;13.716;2022-12-17T10:05:46;24.43;;;8.83;;
7557;SDS011;3820;51.098;13.716;2022-12-17T10:08:31;25.73;;;9.67;;
7557;SDS011;3820;51.098;13.716;2022-12-17T10:14:03;24.87;;;9.37;;
7557;SDS011;3820;51.098;13.716;2022-12-17T10:16:57;22.37;;;10.40;;
7557;SDS011;3820;51.098;13.716;2022-12-17T10:19:42;13.27;;;7.53;;
7557;SDS011;3820;51.098;13.716;2022-12-17T10:22:27;28.20;;;9.20;;
7557;SDS011;3820;51.098;13.716;2022-12-17T10:25:18;17.40;;;8.30;;
7557;SDS011;3820;51.098;13.716;2022-12-17T10:28:05;28.90;;;8.47;;
7557;SDS011;3820;51.098;13.716;2022-12-17T10:30:50;19.10;;;7.30;;
7557;SDS011;3820;51.098;13.716;2022-12-17T10:33:37;23.33;;;9.23;;
7557;SDS011;3820;51.098;13.716;2022-12-17T10:36:24;30.00;;;10.03;;
7557;SDS011;3820;51.098;13.716;2022-12-17T10:39:19;15.57;;;6.83;;
7557;SDS011;3820;51.098;13.716;2022-12-17T10:48:03;24.83;;;8.40;;
7557;SDS011;3820;51.098;13.716;2022-12-17T10:50:50;21.33;;;9.00;;
7557;SDS011;3820;51.098;13.716;2022-12-17T10:53:35;25.03;;;7.97;;
7557;SDS011;3820;51.098;13.716;2022-12-17T10:56:24;24.17;;;8.30;;
7557;SDS011;3820;51.098;13.716;2022-12-17T10:59:10;29.83;;;7.97;;
7557;SDS011;3820;51.098;13.716;2022-12-17T11:01:57;22.87;;;10.30;;
7557;SDS011;3820;51.098;13.716;2022-12-17T11:04:50;27.13;;;9.43;;
7557;SDS011;3820;51.098;13.716;2022-12-17T11:07:37;21.00;;;9.53;;
7557;SDS011;3820;51.098;13.716;2022-12-17T11:10:25;29.87;;;9.90;;
7557;SDS011;3820;51.098;13.716;2022-12-17T11:13:20;22.77;;;8.93;;
7557;SDS011;3820;51.098;13.716;2022-12-17T11:16:15;29.17;;;10.00;;
7557;SDS011;3820;51.098;13.716;2022-12-17T11:22:00;29.20;;;11.07;;
7557;SDS011;3820;51.098;13.716;2022-12-17T11:24:53;25.20;;;11.10;;
7557;SDS011;3820;51.098;13.716;2022-12-17T11:27:42;27.10;;;10.77;;
7557;SDS011;3820;51.098;13.716;2022-12-17T11:30:28;29.30;;;10.53;;
7557;SDS011;3820;51.098;13.716;2022-12-17T11:33:17;23.13;;;11.70;;
7557;SDS011;3820;51.098;13.716;2022-12-17T11:42:17;27.17;;;9.77;;
7557;SDS011;3820;51.098;13.716;2022-12-17T11:45:30;33.37;;;11.30;;
7557;SDS011;3820;51.098;13.716;2022-12-17T11:51:17;22.23;;;9.20;;
7557;SDS011;3820;51.098;13.716;2022-12-17T11:54:19;20.37;;;9.07;;
7557;SDS011;3820;51.098;13.716;2022-12-17T11:57:16;27.90;;;11.03;;
7557;SDS011;3820;51.098;13.716;2022-12-17T12:00:22;27.37;;;10.00;;
7557;SDS011;3820;51.098;13.716;2022-12-17T12:06:30;19.93;;;8.53;;
7557;SDS011;3820;51.098;13.716;2022-12-17T12:21:31;16.50;;;9.47;;
7557;SDS011;3820;51.098;13.716;2022-12-17T12:30:28;21.37;;;8.80;;
7557;SDS011;3820;51.098;13.716;2022-12-17T12:33:32;14.93;;;7.33;;
7557;SDS011;3820;51.098;13.716;2022-12-17T12:36:34;21.60;;;7.70;;
7557;SDS011;3820;51.098;13.716;2022-12-17T12:39:21;17.77;;;8.80;;
7557;SDS011;3820;51.098;13.716;2022-12-17T12:42:26;14.87;;;8.07;;
7557;SDS011;3820;51.098;13.716;2022-12-17T12:48:06;18.60;;;8.40;;
7557;SDS011;3820;51.098;13.716;2022-12-17T12:51:21;17.23;;;6.77;;
7557;SDS011;3820;51.098;13.716;2022-12-17T13:03:33;20.53;;;7.93;;
7557;SDS011;3820;51.098;13.716;2022-12-17T13:11:49;20.83;;;8.13;;
7557;SDS011;3820;51.098;13.716;2022-12-17T13:14:22;23.20;;;7.83;;
7557;SDS011;3820;51.098;13.716;2022-12-17T13:16:52;16.87;;;8.30;;
7557;SDS011;3820;51.098;13.716;2022-12-17T13:21:47;22.07;;;9.57;;
7557;SDS011;3820;51.098;13.716;2022-12-17T13:24:24;17.30;;;6.90;;
7557;SDS011;3820;51.098;13.716;2022-12-17T13:26:51;20.43;;;8.97;;
7557;SDS011;3820;51.098;13.716;2022-12-17T13:29:28;20.23;;;8.13;;
7557;SDS011;3820;51.098;13.716;2022-12-17T13:32:08;18.53;;;7.43;;
7557;SDS011;3820;51.098;13.716;2022-12-17T13:37:17;18.00;;;8.50;;
7557;SDS011;3820;51.098;13.716;2022-12-17T13:42:28;18.10;;;6.73;;
7557;SDS011;3820;51.098;13.716;2022-12-17T13:44:55;15.20;;;8.57;;
7557;SDS011;3820;51.098;13.716;2022-12-17T13:47:24;16.40;;;6.77;;
7557;SDS011;3820;51.098;13.716;2022-12-17T13:49:56;19.83;;;8.27;;
7557;SDS011;3820;51.098;13.716;2022-12-17T13:52:44;15.30;;;6.60;;
7557;SDS011;3820;51.098;13.716;2022-12-17T13:55:16;12.97;;;6.63;;
7557;SDS011;3820;51.098;13.716;2022-12-17T13:57:46;12.93;;;7.17;;
7557;SDS011;3820;51.098;13.716;2022-12-17T14:00:18;16.37;;;6.93;;
7557;SDS011;3820;51.098;13.716;2022-12-17T14:02:46;16.27;;;7.30;;
7557;SDS011;3820;51.098;13.716;2022-12-17T14:05:34;20.70;;;7.03;;
7557;SDS011;3820;51.098;13.716;2022-12-17T14:08:07;19.50;;;7.33;;
7557;SDS011;3820;51.098;13.716;2022-12-17T14:10:34;17.77;;;7.57;;
7557;SDS011;3820;51.098;13.716;2022-12-17T14:13:04;20.30;;;8.30;;
7557;SDS011;3820;51.098;13.716;2022-12-17T14:15:32;20.43;;;9.43;;
7557;SDS011;3820;51.098;13.716;2022-12-17T14:17:59;18.40;;;7.70;;
7557;SDS011;3820;51.098;13.716;2022-12-17T14:20:30;24.87;;;10.00;;
7557;SDS011;3820;51.098;13.716;2022-12-17T14:23:05;16.10;;;7.03;;
7557;SDS011;3820;51.098;13.716;2022-12-17T14:25:38;15.63;;;6.77;;
7557;SDS011;3820;51.098;13.716;2022-12-17T14:28:17;15.53;;;8.10;;
7557;SDS011;3820;51.098;13.716;2022-12-17T14:30:46;20.30;;;8.93;;
7557;SDS011;3820;51.098;13.716;2022-12-17T14:33:34;18.00;;;9.07;;
7557;SDS011;3820;51.098;13.716;2022-12-17T14:36:04;17.43;;;8.07;;
7557;SDS011;3820;51.098;13.716;2022-12-17T14:38:32;18.17;;;8.13;;
7557;SDS011;3820;51.098;13.716;2022-12-17T14:41:13;15.70;;;6.37;;
7557;SDS011;3820;51.098;13.716;2022-12-17T14:43:58;24.53;;;8.03;;
7557;SDS011;3820;51.098;13.716;2022-12-17T14:46:27;19.77;;;7.93;;
7557;SDS011;3820;51.098;13.716;2022-12-17T14:48:58;12.70;;;6.63;;
7557;SDS011;3820;51.098;13.716;2022-12-17T14:56:46;15.03;;;6.27;;
7557;SDS011;3820;51.098;13.716;2022-12-17T14:59:47;19.17;;;7.97;;
7557;SDS011;3820;51.098;13.716;2022-12-17T15:04:36;14.63;;;5.57;;
7557;SDS011;3820;51.098;13.716;2022-12-17T15:07:04;9.30;;;5.13;;
7557;SDS011;3820;51.098;13.716;2022-12-17T15:09:35;11.60;;;6.37;;
7557;SDS011;3820;51.098;13.716;2022-12-17T15:12:02;15.97;;;6.80;;
7557;SDS011;3820;51.098;13.716;2022-12-17T15:14:29;10.63;;;5.17;;
7557;SDS011;3820;51.098;13.716;2022-12-17T15:16:55;12.63;;;5.50;;
7557;SDS011;3820;51.098;13.716;2022-12-17T15:19:24;9.13;;;4.83;;
7557;SDS011;3820;51.098;13.716;2022-12-17T15:21:50;7.77;;;5.30;;
7557;SDS011;3820;51.098;13.716;2022-12-17T15:24:18;14.10;;;6.07;;
7557;SDS011;3820;51.098;13.716;2022-12-17T15:26:46;9.40;;;4.80;;
7557;SDS011;3820;51.098;13.716;2022-12-17T15:29:15;12.53;;;5.50;;
7557;SDS011;3820;51.098;13.716;2022-12-17T15:31:42;9.37;;;4.57;;
7557;SDS011;3820;51.098;13.716;2022-12-17T15:34:09;8.90;;;5.50;;
7557;SDS011;3820;51.098;13.716;2022-12-17T15:36:37;10.10;;;5.57;;
7557;SDS011;3820;51.098;13.716;2022-12-17T15:39:03;7.63;;;4.57;;
7557;SDS011;3820;51.098;13.716;2022-12-17T15:41:33;7.43;;;5.30;;
7557;SDS011;3820;51.098;13.716;2022-12-17T15:44:19;9.90;;;5.10;;
7557;SDS011;3820;51.098;13.716;2022-12-17T15:46:45;17.97;;;5.80;;
7557;SDS011;3820;51.098;13.716;2022-12-17T15:49:12;6.37;;;5.23;;
7557;SDS011;3820;51.098;13.716;2022-12-17T15:51:39;10.43;;;4.97;;
7557;SDS011;3820;51.098;13.716;2022-12-17T15:54:05;16.47;;;6.23;;
7557;SDS011;3820;51.098;13.716;2022-12-17T15:56:32;17.07;;;6.70;;
7557;SDS011;3820;51.098;13.716;2022-12-17T15:58:59;8.53;;;4.30;;
7557;SDS011;3820;51.098;13.716;2022-12-17T16:01:26;11.27;;;5.23;;
7557;SDS011;3820;51.098;13.716;2022-12-17T16:03:53;14.40;;;5.03;;
7557;SDS011;3820;51.098;13.716;2022-12-17T16:06:20;7.90;;;4.13;;
7557;SDS011;3820;51.098;13.716;2022-12-17T16:08:46;12.20;;;5.53;;
7557;SDS011;3820;51.098;13.716;2022-12-17T16:11:13;12.97;;;5.70;;
7557;SDS011;3820;51.098;13.716;2022-12-17T16:13:41;9.43;;;4.90;;
7557;SDS011;3820;51.098;13.716;2022-12-17T16:16:08;11.20;;;5.73;;
7557;SDS011;3820;51.098;13.716;2022-12-17T16:18:35;17.17;;;6.07;;
7557;SDS011;3820;51.098;13.716;2022-12-17T16:21:04;15.40;;;5.83;;
7557;SDS011;3820;51.098;13.716;2022-12-17T16:23:32;10.80;;;5.73;;
7557;SDS011;3820;51.098;13.716;2022-12-17T16:25:59;17.30;;;6.67;;
7557;SDS011;3820;51.098;13.716;2022-12-17T16:28:27;8.23;;;4.33;;
7557;SDS011;3820;51.098;13.716;2022-12-17T16:31:01;8.90;;;5.67;;
7557;SDS011;3820;51.098;13.716;2022-12-17T16:33:36;10.60;;;5.10;;
7557;SDS011;3820;51.098;13.716;2022-12-17T16:36:04;7.90;;;5.97;;
7557;SDS011;3820;51.098;13.716;2022-12-17T16:38:32;10.17;;;4.07;;
7557;SDS011;3820;51.098;13.716;2022-12-17T16:41:00;12.40;;;5.10;;
7557;SDS011;3820;51.098;13.716;2022-12-17T16:43:28;17.93;;;4.93;;
7557;SDS011;3820;51.098;13.716;2022-12-17T16:45:58;8.17;;;4.63;;
7557;SDS011;3820;51.098;13.716;2022-12-17T16:48:25;8.87;;;5.13;;
7557;SDS011;3820;51.098;13.716;2022-12-17T16:50:51;11.60;;;4.70;;
7557;SDS011;3820;51.098;13.716;2022-12-17T16:53:18;9.03;;;5.63;;
7557;SDS011;3820;51.098;13.716;2022-12-17T16:55:45;9.27;;;5.50;;
7557;SDS011;3820;51.098;13.716;2022-12-17T16:58:13;10.47;;;3.23;;
7557;SDS011;3820;51.098;13.716;2022-12-17T17:00:41;6.93;;;4.80;;
7557;SDS011;3820;51.098;13.716;2022-12-17T17:03:08;7.63;;;4.27;;
7557;SDS011;3820;51.098;13.716;2022-12-17T17:05:36;11.67;;;5.27;;
7557;SDS011;3820;51.098;13.716;2022-12-17T17:08:04;8.20;;;4.53;;
7557;SDS011;3820;51.098;13.716;2022-12-17T17:10:32;9.33;;;5.30;;
7557;SDS011;3820;51.098;13.716;2022-12-17T17:13:00;13.03;;;5.50;;
7557;SDS011;3820;51.098;13.716;2022-12-17T17:15:27;15.07;;;6.10;;
7557;SDS011;3820;51.098;13.716;2022-12-17T17:17:53;13.63;;;5.77;;
7557;SDS011;3820;51.098;13.716;2022-12-17T17:20:27;14.07;;;4.67;;
7557;SDS011;3820;51.098;13.716;2022-12-17T17:22:58;11.13;;;4.57;;
7557;SDS011;3820;51.098;13.716;2022-12-17T17:25:25;7.80;;;4.33;;
7557;SDS011;3820;51.098;13.716;2022-12-17T17:28:11;11.17;;;6.73;;
7557;SDS011;3820;51.098;13.716;2022-12-17T17:30:38;10.13;;;5.17;;
7557;SDS011;3820;51.098;13.716;2022-12-17T17:33:04;7.27;;;5.40;;
7557;SDS011;3820;51.098;13.716;2022-12-17T17:35:31;5.00;;;3.60;;
7557;SDS011;3820;51.098;13.716;2022-12-17T17:37:57;10.07;;;5.07;;
7557;SDS011;3820;51.098;13.716;2022-12-17T17:40:24;7.50;;;4.37;;
7557;SDS011;3820;51.098;13.716;2022-12-17T17:42:51;6.00;;;4.30;;
7557;SDS011;3820;51.098;13.716;2022-12-17T17:45:18;8.13;;;4.93;;
7557;SDS011;3820;51.098;13.716;2022-12-17T17:47:45;9.33;;;5.30;;
7557;SDS011;3820;51.098;13.716;2022-12-17T17:50:11;4.00;;;3.57;;
7557;SDS011;3820;51.098;13.716;2022-12-17T17:52:38;5.37;;;3.73;;
7557;SDS011;3820;51.098;13.716;2022-12-17T17:55:04;5.23;;;3.83;;
7557;SDS011;3820;51.098;13.716;2022-12-17T17:57:31;6.70;;;3.87;;
7557;SDS011;3820;51.098;13.716;2022-12-17T17:59:58;9.57;;;4.53;;
7557;SDS011;3820;51.098;13.716;2022-12-17T18:02:24;5.20;;;3.63;;